createdAt,value
2023-03-23T16:01:15.723Z,99.90
2023-03-23T16:06:23.937Z,99.90
2023-03-23T16:11:31.300Z,99.90
2023-03-23T16:16:38.232Z,99.90
2023-03-23T16:21:42.127Z,99.50
2023-03-23T16:26:44.992Z,98.60
2023-03-23T16:31:49.277Z,97.80
2023-03-23T16:36:52.151Z,97.30
2023-03-23T16:42:01.259Z,96.90
2023-03-23T16:47:05.468Z,96.50
2023-03-23T16:52:09.364Z,96.20
2023-03-23T16:57:12.583Z,96.00
2023-03-23T17:02:17.034Z,95.90
2023-03-23T17:07:20.135Z,95.60
2023-03-23T17:12:23.622Z,95.20
2023-03-23T17:17:28.218Z,95.00
2023-03-23T17:22:31.257Z,94.80
2023-03-23T17:27:34.481Z,94.40
2023-03-23T17:32:39.128Z,94.10
2023-03-23T17:37:43.467Z,94.00
2023-03-23T17:42:49.386Z,93.80
2023-03-23T17:47:53.671Z,93.50
2023-03-23T17:52:57.908Z,93.30
2023-03-23T17:58:00.888Z,93.20
2023-03-23T18:03:05.116Z,93.10
2023-03-23T18:08:08.484Z,92.90
2023-03-23T18:13:12.012Z,92.80
2023-03-23T18:18:16.272Z,92.60
2023-03-23T18:23:19.144Z,92.30
2023-03-23T18:28:22.732Z,92.30
2023-03-23T18:33:27.056Z,92.10
2023-03-23T18:38:30.376Z,92.10
2023-03-23T18:43:33.361Z,91.90
2023-03-23T18:48:37.764Z,91.80
2023-03-23T18:53:40.873Z,91.70
2023-03-23T18:58:44.284Z,91.60
2023-03-23T19:03:48.537Z,91.60
2023-03-23T19:08:53.450Z,91.60
2023-03-23T19:14:03.079Z,91.50
2023-03-23T19:19:08.960Z,91.40
2023-03-23T19:24:12.573Z,91.30
2023-03-23T19:34:26.660Z,91.00
2023-03-23T19:39:29.636Z,90.80
2023-03-23T19:44:32.689Z,90.70
2023-03-23T19:49:37.240Z,90.50
2023-03-23T19:54:41.052Z,90.30
2023-03-23T19:59:44.317Z,90.10
2023-03-23T20:04:48.621Z,89.80
2023-03-23T20:09:51.593Z,89.60
2023-03-23T20:14:54.681Z,89.30
2023-03-23T20:19:59.430Z,89.00
2023-03-23T20:25:03.185Z,88.70
2023-03-23T20:30:08.507Z,88.50
2023-03-23T20:35:13.063Z,88.30
2023-03-23T20:40:18.621Z,88.00
2023-03-23T20:45:21.813Z,87.80
2023-03-23T20:50:26.159Z,87.60
2023-03-23T20:55:29.537Z,87.40
2023-03-23T21:00:32.501Z,87.40
2023-03-23T21:05:36.939Z,87.00
2023-03-23T21:10:41.005Z,86.70
2023-03-23T21:15:44.742Z,86.50
2023-03-23T21:20:50.380Z,86.50
2023-03-23T21:25:53.685Z,86.70
2023-03-23T21:31:00.297Z,86.50
2023-03-23T21:36:04.738Z,86.40
2023-03-23T21:41:09.962Z,86.40
2023-03-23T21:46:18.193Z,86.20
2023-03-23T21:51:24.162Z,86.10
2023-03-23T21:56:28.113Z,86.30
2023-03-23T22:01:31.277Z,86.10
2023-03-23T22:06:35.792Z,86.00
2023-03-23T22:11:39.541Z,85.70
2023-03-23T22:16:42.832Z,85.50
2023-03-23T22:21:47.082Z,86.50
2023-03-23T22:26:50.363Z,87.70
2023-03-23T22:31:53.485Z,89.20
2023-03-23T22:36:57.720Z,90.30
2023-03-23T22:42:00.714Z,90.70
2023-03-23T22:47:03.599Z,91.00
2023-03-23T22:52:07.937Z,91.40
2023-03-23T22:57:13.095Z,91.10
2023-03-23T23:02:16.132Z,91.50
2023-03-23T23:07:22.000Z,92.30
2023-03-23T23:12:25.680Z,93.30
2023-03-23T23:17:28.601Z,93.80
2023-03-23T23:22:34.922Z,94.20
2023-03-23T23:27:37.887Z,94.60
2023-03-23T23:32:42.741Z,94.70
2023-03-23T23:37:47.529Z,94.70
2023-03-23T23:42:52.541Z,94.40
2023-03-23T23:47:56.346Z,94.20
2023-03-23T23:53:00.666Z,93.90
2023-03-23T23:58:03.596Z,93.60
